createdAt,value
2019-04-16T00:01:33.462Z,42.80
2019-04-16T00:04:33.641Z,27.67
2019-04-16T00:07:36.126Z,26.50
2019-04-16T00:10:35.663Z,22.30
2019-04-16T00:13:36.066Z,27.50
2019-04-16T00:16:16.728Z,23.57
2019-04-16T00:19:01.078Z,23.90
2019-04-16T00:25:13.228Z,23.10
2019-04-16T00:27:53.130Z,26.93
2019-04-16T00:30:35.746Z,22.43
2019-04-16T00:33:15.247Z,22.70
2019-04-16T00:35:55.302Z,25.80
2019-04-16T00:38:40.814Z,20.90
2019-04-16T00:41:17.821Z,21.93
2019-04-16T00:43:57.531Z,23.80
2019-04-16T00:46:38.162Z,24.80
2019-04-16T00:49:18.378Z,21.60
2019-04-16T00:51:58.175Z,24.90
2019-04-16T00:54:39.297Z,39.08
2019-04-16T00:57:20.041Z,34.40
2019-04-16T01:00:00.280Z,28.90
2019-04-16T01:02:39.974Z,29.85
2019-04-16T01:05:20.458Z,25.82
2019-04-16T01:08:01.203Z,26.57
2019-04-16T01:10:41.452Z,21.93
2019-04-16T01:13:24.245Z,21.10
2019-04-16T01:16:04.205Z,20.70
2019-04-16T01:18:44.145Z,21.20
2019-04-16T01:21:25.219Z,21.27
2019-04-16T01:24:04.950Z,25.92
2019-04-16T01:26:44.957Z,21.65
2019-04-16T01:29:25.161Z,22.35
2019-04-16T01:32:24.398Z,22.55
2019-04-16T01:35:23.494Z,21.07
2019-04-16T01:38:27.736Z,24.15
2019-04-16T01:41:08.207Z,21.90
2019-04-16T01:43:48.894Z,21.87
2019-04-16T01:46:32.551Z,21.33
2019-04-16T01:49:11.587Z,22.02
2019-04-16T01:51:52.238Z,23.38
2019-04-16T01:54:32.398Z,22.17
2019-04-16T01:57:12.357Z,26.00
2019-04-16T01:59:52.833Z,22.45
2019-04-16T02:02:33.382Z,22.95
2019-04-16T02:05:13.518Z,25.02
2019-04-16T02:07:53.526Z,23.38
2019-04-16T02:10:35.449Z,37.40
2019-04-16T02:13:15.968Z,24.90
2019-04-16T02:15:56.133Z,25.25
2019-04-16T02:18:36.087Z,25.75
2019-04-16T02:21:16.093Z,21.82
2019-04-16T02:23:55.893Z,24.43
2019-04-16T02:26:36.521Z,25.12
2019-04-16T02:29:16.665Z,24.18
2019-04-16T02:31:56.591Z,25.85
2019-04-16T02:34:36.661Z,23.77
2019-04-16T02:37:16.980Z,23.02
2019-04-16T02:39:56.819Z,23.57
2019-04-16T02:42:37.475Z,25.80
2019-04-16T02:45:22.505Z,21.90
2019-04-16T02:47:59.398Z,21.23
2019-04-16T02:51:05.513Z,23.30
2019-04-16T02:54:07.515Z,23.80
2019-04-16T02:57:07.429Z,28.95
2019-04-16T02:59:48.255Z,27.98
2019-04-16T03:02:45.485Z,23.67
2019-04-16T03:05:35.042Z,22.48
2019-04-16T03:08:14.802Z,21.33
2019-04-16T03:10:55.182Z,19.62
2019-04-16T03:13:35.009Z,19.60
2019-04-16T03:19:30.769Z,27.45
2019-04-16T03:22:11.571Z,78.57
2019-04-16T03:24:51.903Z,102.20
2019-04-16T03:27:31.768Z,77.53
2019-04-16T03:30:11.528Z,37.00
2019-04-16T03:32:51.996Z,27.98
2019-04-16T03:35:31.746Z,27.93
2019-04-16T03:38:11.750Z,21.62
2019-04-16T03:40:55.929Z,26.82
2019-04-16T03:43:34.487Z,23.95
2019-04-16T03:46:14.678Z,25.05
2019-04-16T03:48:56.088Z,23.70
2019-04-16T03:51:36.923Z,25.05
2019-04-16T03:54:19.290Z,20.92
2019-04-16T03:57:02.230Z,22.95
2019-04-16T03:59:42.029Z,19.55
2019-04-16T04:02:23.068Z,27.20
2019-04-16T04:05:06.338Z,19.00
2019-04-16T04:07:45.190Z,22.75
2019-04-16T04:10:30.705Z,20.95
2019-04-16T04:13:07.822Z,20.40
2019-04-16T04:15:48.884Z,18.07
2019-04-16T04:18:28.678Z,19.10
2019-04-16T04:21:10.038Z,18.55
2019-04-16T04:23:50.518Z,20.12
2019-04-16T04:26:30.807Z,20.82
2019-04-16T04:29:11.050Z,17.92
2019-04-16T04:31:51.350Z,22.67
2019-04-16T04:34:31.257Z,22.70
2019-04-16T04:37:11.329Z,24.60
2019-04-16T04:39:51.582Z,26.55
2019-04-16T04:42:31.571Z,33.30
2019-04-16T04:45:11.389Z,19.52
2019-04-16T04:47:39.416Z,27.50
2019-04-16T04:50:26.564Z,28.25
2019-04-16T04:53:06.716Z,27.82
2019-04-16T04:55:46.928Z,27.10
2019-04-16T04:58:27.114Z,32.25
2019-04-16T05:01:09.595Z,23.25
2019-04-16T05:04:09.314Z,23.02
2019-04-16T05:06:49.401Z,24.83
2019-04-16T05:09:35.524Z,25.10
2019-04-16T05:12:12.217Z,22.27
2019-04-16T05:14:58.677Z,21.27
2019-04-16T05:17:38.428Z,18.23
2019-04-16T05:20:47.671Z,18.47
2019-04-16T05:23:37.600Z,16.50
2019-04-16T05:26:27.216Z,18.10
2019-04-16T05:29:16.078Z,19.07
2019-04-16T05:31:54.465Z,19.27
2019-04-16T05:34:37.403Z,19.40
2019-04-16T05:37:19.854Z,21.27
2019-04-16T05:39:59.773Z,20.03
2019-04-16T05:42:39.973Z,24.40
2019-04-16T05:45:20.183Z,23.63
2019-04-16T05:48:00.389Z,27.43
2019-04-16T05:50:40.097Z,26.27
2019-04-16T05:53:20.061Z,29.23
2019-04-16T05:59:15.334Z,29.93
2019-04-16T06:05:16.178Z,30.50
2019-04-16T06:08:09.153Z,30.53
2019-04-16T06:11:09.174Z,26.70
2019-04-16T06:20:19.046Z,29.32
2019-04-16T06:23:14.357Z,29.52
2019-04-16T06:26:44.419Z,24.52
2019-04-16T06:30:06.018Z,22.53
2019-04-16T06:32:47.152Z,24.52
2019-04-16T06:35:46.463Z,23.57
2019-04-16T06:38:35.224Z,22.27
2019-04-16T06:41:41.905Z,30.50
2019-04-16T06:44:21.072Z,24.10
2019-04-16T06:50:55.310Z,21.52
2019-04-16T06:53:56.818Z,26.47
2019-04-16T06:56:57.151Z,21.40
2019-04-16T07:03:06.662Z,26.23
2019-04-16T07:06:05.959Z,20.50
2019-04-16T07:09:00.553Z,24.35
2019-04-16T07:11:53.645Z,22.03
2019-04-16T07:14:24.390Z,23.97
2019-04-16T07:17:04.494Z,22.58
2019-04-16T07:19:44.550Z,26.30
2019-04-16T07:22:25.988Z,21.50
2019-04-16T07:25:06.499Z,31.43
2019-04-16T07:28:06.533Z,21.50
2019-04-16T07:31:34.259Z,24.90
2019-04-16T07:34:26.268Z,21.73
2019-04-16T07:37:33.745Z,20.40
2019-04-16T07:40:25.074Z,22.70
2019-04-16T07:43:24.982Z,22.80
2019-04-16T07:46:23.933Z,24.63
2019-04-16T07:49:26.379Z,23.93
2019-04-16T07:52:25.354Z,20.07
2019-04-16T07:55:26.575Z,20.90
2019-04-16T07:58:07.345Z,20.10
2019-04-16T08:00:49.432Z,21.23
2019-04-16T08:03:29.087Z,21.17
2019-04-16T08:06:10.665Z,23.13
2019-04-16T08:08:53.867Z,21.07
2019-04-16T08:11:38.107Z,24.03
2019-04-16T08:14:18.634Z,26.37
2019-04-16T08:16:58.862Z,21.23
2019-04-16T08:19:44.689Z,20.67
2019-04-16T08:25:34.866Z,25.03
2019-04-16T08:28:22.482Z,23.30
2019-04-16T08:31:04.346Z,24.00
2019-04-16T08:33:44.338Z,28.33
2019-04-16T08:36:28.713Z,23.00
2019-04-16T08:39:11.640Z,33.23
2019-04-16T08:41:52.355Z,23.90
2019-04-16T08:44:35.788Z,23.23
2019-04-16T08:47:16.782Z,21.73
2019-04-16T08:50:00.134Z,25.03
2019-04-16T08:52:41.863Z,22.60
2019-04-16T08:55:24.465Z,23.03
2019-04-16T08:58:06.399Z,22.50
2019-04-16T09:00:49.152Z,23.80
2019-04-16T09:03:30.109Z,20.90
2019-04-16T09:06:13.627Z,27.03
2019-04-16T09:12:09.415Z,24.60
2019-04-16T09:14:55.907Z,23.07
2019-04-16T09:17:37.709Z,23.17
2019-04-16T09:20:24.291Z,23.80
2019-04-16T09:22:54.663Z,25.03
2019-04-16T09:26:23.659Z,23.70
2019-04-16T09:29:30.428Z,22.50
2019-04-16T09:32:30.783Z,20.70
2019-04-16T09:35:20.821Z,23.20
2019-04-16T09:38:20.414Z,27.43
2019-04-16T09:41:23.498Z,28.20
2019-04-16T09:44:04.390Z,22.13
2019-04-16T09:46:51.052Z,22.73
2019-04-16T09:49:26.814Z,21.33
2019-04-16T09:52:08.667Z,19.83
2019-04-16T09:54:50.069Z,24.07
2019-04-16T09:57:31.460Z,23.00
2019-04-16T10:00:16.854Z,18.50
2019-04-16T10:03:01.966Z,21.90
2019-04-16T10:05:43.498Z,24.33
2019-04-16T10:08:24.360Z,23.47
2019-04-16T10:11:06.243Z,21.03
2019-04-16T10:13:47.627Z,22.23
2019-04-16T10:16:29.146Z,24.80
2019-04-16T10:19:09.879Z,28.00
2019-04-16T10:21:54.207Z,20.33
2019-04-16T10:24:54.877Z,22.43
2019-04-16T10:27:55.334Z,21.37
2019-04-16T10:33:50.041Z,22.20
2019-04-16T10:36:30.341Z,20.10
2019-04-16T10:42:30.360Z,19.53
2019-04-16T10:45:26.421Z,26.43
2019-04-16T10:48:26.316Z,21.23
2019-04-16T10:51:25.862Z,19.43
2019-04-16T10:54:25.143Z,20.40
2019-04-16T10:57:27.939Z,25.60
2019-04-16T11:00:30.129Z,21.93
2019-04-16T11:03:17.748Z,26.60
2019-04-16T11:06:08.241Z,20.93
2019-04-16T11:08:49.417Z,21.33
2019-04-16T11:11:34.364Z,17.00
2019-04-16T11:14:16.674Z,21.37
2019-04-16T11:16:57.812Z,20.50
2019-04-16T11:19:45.751Z,24.67
2019-04-16T11:22:29.463Z,19.43
2019-04-16T11:25:11.093Z,24.00
2019-04-16T11:27:52.013Z,29.50
2019-04-16T11:30:39.048Z,21.27
2019-04-16T11:36:00.096Z,21.27
2019-04-16T11:38:42.035Z,19.27
2019-04-16T11:41:22.798Z,20.30
2019-04-16T11:44:15.006Z,22.03
2019-04-16T11:46:39.314Z,21.47
2019-04-16T11:49:26.335Z,19.30
2019-04-16T11:52:06.195Z,20.03
2019-04-16T11:54:47.069Z,18.60
2019-04-16T11:57:33.351Z,21.70
2019-04-16T12:00:14.073Z,19.23
2019-04-16T12:03:13.502Z,19.60
2019-04-16T12:06:00.796Z,22.30
2019-04-16T12:09:00.649Z,19.23
2019-04-16T12:11:38.754Z,18.67
2019-04-16T12:14:45.390Z,23.10
2019-04-16T12:17:31.530Z,20.87
2019-04-16T12:20:31.383Z,21.93
2019-04-16T12:26:46.257Z,17.87
2019-04-16T12:32:38.065Z,21.00
2019-04-16T12:35:38.192Z,19.87
2019-04-16T12:38:44.031Z,17.97
2019-04-16T12:41:37.238Z,15.57
2019-04-16T12:44:45.520Z,17.47
2019-04-16T12:51:02.236Z,16.90
2019-04-16T12:53:53.131Z,20.10
2019-04-16T12:56:54.039Z,19.77
2019-04-16T13:00:08.561Z,20.70
2019-04-16T13:03:16.451Z,21.13
2019-04-16T13:06:13.419Z,23.07
2019-04-16T13:09:21.808Z,19.73
2019-04-16T13:12:22.537Z,17.77
2019-04-16T13:15:13.245Z,20.33
2019-04-16T13:18:34.783Z,17.53
2019-04-16T13:21:20.424Z,18.20
2019-04-16T13:24:04.177Z,22.00
2019-04-16T13:26:47.598Z,20.13
2019-04-16T13:29:30.595Z,20.90
2019-04-16T13:32:11.901Z,27.03
2019-04-16T13:34:52.239Z,16.97
2019-04-16T13:37:37.008Z,18.83
2019-04-16T13:40:16.768Z,17.23
2019-04-16T13:42:57.025Z,20.30
2019-04-16T13:45:38.999Z,17.40
2019-04-16T13:48:42.291Z,21.43
2019-04-16T13:51:44.996Z,20.17
2019-04-16T13:54:34.126Z,22.67
2019-04-16T13:57:21.459Z,21.53
2019-04-16T14:00:25.159Z,21.73
2019-04-16T14:03:09.283Z,16.30
2019-04-16T14:05:49.318Z,20.47
2019-04-16T14:08:29.749Z,18.00
2019-04-16T14:11:09.617Z,17.93
2019-04-16T14:13:50.280Z,20.13
2019-04-16T14:16:19.150Z,13.70
2019-04-16T14:19:06.780Z,15.50
2019-04-16T14:22:08.862Z,34.03
2019-04-16T14:24:48.634Z,15.00
2019-04-16T14:27:29.157Z,17.80
2019-04-16T14:30:13.640Z,20.13
2019-04-16T14:32:54.014Z,13.03
2019-04-16T14:35:40.032Z,13.03
2019-04-16T14:38:24.836Z,15.70
2019-04-16T14:41:05.602Z,13.13
2019-04-16T14:43:49.722Z,16.37
2019-04-16T14:46:30.128Z,20.33
2019-04-16T14:49:15.233Z,21.07
2019-04-16T14:51:58.145Z,14.87
2019-04-16T14:55:02.608Z,15.20
2019-04-16T14:58:02.562Z,16.07
2019-04-16T15:01:02.201Z,17.37
2019-04-16T15:04:00.157Z,19.47
2019-04-16T15:06:59.319Z,16.10
2019-04-16T15:09:48.284Z,24.60
2019-04-16T15:12:40.417Z,13.10
2019-04-16T15:15:24.253Z,16.23
2019-04-16T15:18:26.752Z,14.97
2019-04-16T15:21:33.041Z,19.50
2019-04-16T15:24:25.891Z,18.40
2019-04-16T15:27:18.091Z,14.50
2019-04-16T15:30:05.220Z,17.13
2019-04-16T15:33:06.795Z,22.03
2019-04-16T15:36:18.537Z,13.70
2019-04-16T15:39:36.430Z,20.20
2019-04-16T15:42:48.499Z,15.90
2019-04-16T15:45:37.210Z,16.83
2019-04-16T15:48:29.703Z,14.30
2019-04-16T15:51:17.281Z,12.23
2019-04-16T15:54:25.468Z,14.23
2019-04-16T15:57:25.069Z,13.40
2019-04-16T16:00:09.866Z,15.83
2019-04-16T16:05:33.430Z,13.87
2019-04-16T16:08:22.449Z,14.93
2019-04-16T16:11:07.524Z,11.17
2019-04-16T16:13:48.418Z,22.73
2019-04-16T16:16:41.520Z,19.53
2019-04-16T16:19:20.576Z,15.07
2019-04-16T16:22:03.619Z,13.50
2019-04-16T16:24:46.452Z,22.73
2019-04-16T16:27:26.911Z,21.33
2019-04-16T16:30:08.220Z,16.07
2019-04-16T16:32:49.910Z,17.20
2019-04-16T16:35:34.707Z,16.33
2019-04-16T16:38:15.740Z,13.83
2019-04-16T16:40:57.167Z,19.00
2019-04-16T16:43:38.574Z,42.33
2019-04-16T16:46:56.479Z,33.47
2019-04-16T16:49:37.771Z,18.33
2019-04-16T16:52:20.204Z,16.40
2019-04-16T16:55:04.401Z,14.93
2019-04-16T16:58:04.094Z,15.90
2019-04-16T17:01:03.131Z,15.93
2019-04-16T17:04:05.131Z,15.63
2019-04-16T17:06:46.098Z,15.97
2019-04-16T17:09:34.345Z,17.37
2019-04-16T17:12:16.254Z,14.27
2019-04-16T17:15:00.093Z,16.00
2019-04-16T17:17:41.070Z,16.93
2019-04-16T17:20:22.980Z,15.37
2019-04-16T17:23:05.453Z,14.20
2019-04-16T17:25:46.749Z,14.77
2019-04-16T17:28:27.553Z,14.77
2019-04-16T17:31:08.899Z,13.83
2019-04-16T17:33:49.473Z,13.40
2019-04-16T17:36:29.833Z,13.30
2019-04-16T17:39:12.690Z,12.53
2019-04-16T17:42:04.594Z,12.53
2019-04-16T17:45:28.073Z,14.40
2019-04-16T17:48:10.047Z,21.77
2019-04-16T17:53:57.076Z,15.90
2019-04-16T17:56:58.742Z,14.93
2019-04-16T18:00:00.526Z,17.13
2019-04-16T18:03:07.265Z,16.73
2019-04-16T18:09:23.182Z,21.83
2019-04-16T18:12:23.356Z,16.27
2019-04-16T18:15:09.993Z,21.87
2019-04-16T18:18:15.692Z,16.90
2019-04-16T18:21:07.594Z,16.57
2019-04-16T18:24:02.324Z,14.40
2019-04-16T18:29:49.627Z,19.57
2019-04-16T18:33:09.916Z,19.13
2019-04-16T18:36:16.950Z,20.00
2019-04-16T18:39:40.180Z,24.33
2019-04-16T18:46:03.040Z,22.23
2019-04-16T18:48:45.526Z,21.63
2019-04-16T18:51:32.891Z,22.20
2019-04-16T18:54:11.252Z,18.37
2019-04-16T18:56:52.420Z,14.53
2019-04-16T18:59:34.139Z,14.80
2019-04-16T19:02:14.455Z,17.77
2019-04-16T19:04:57.025Z,18.23
2019-04-16T19:07:37.962Z,26.27
2019-04-16T19:10:19.587Z,31.30
2019-04-16T19:13:00.864Z,27.83
2019-04-16T19:15:41.524Z,16.17
2019-04-16T19:18:25.369Z,19.73
2019-04-16T19:21:08.917Z,42.47
2019-04-16T19:23:50.474Z,34.63
2019-04-16T19:26:31.112Z,24.07
2019-04-16T19:29:14.515Z,34.90
2019-04-16T19:31:56.703Z,28.90
2019-04-16T19:34:35.546Z,24.73
2019-04-16T19:37:16.097Z,20.20
2019-04-16T19:39:56.616Z,20.80
2019-04-16T19:42:37.270Z,20.83
2019-04-16T19:45:17.602Z,18.37
2019-04-16T19:48:00.840Z,30.97
2019-04-16T19:50:39.734Z,33.20
2019-04-16T19:53:20.008Z,30.47
2019-04-16T19:55:59.915Z,26.77
2019-04-16T19:58:40.226Z,50.23
2019-04-16T20:01:20.478Z,102.00
2019-04-16T20:04:01.369Z,81.30
2019-04-16T20:06:41.422Z,48.83
2019-04-16T20:09:20.809Z,36.57
2019-04-16T20:12:02.282Z,36.23
2019-04-16T20:14:42.902Z,26.90
2019-04-16T20:17:23.061Z,27.07
2019-04-16T20:20:02.941Z,25.07
2019-04-16T20:22:42.783Z,22.73
2019-04-16T20:25:23.420Z,22.70
2019-04-16T20:28:03.842Z,21.80
2019-04-16T20:30:44.429Z,21.20
2019-04-16T20:33:24.501Z,20.37
2019-04-16T20:36:04.389Z,17.83
2019-04-16T20:38:44.826Z,19.30
2019-04-16T20:41:25.455Z,17.20
2019-04-16T20:44:08.515Z,20.63
2019-04-16T20:46:47.328Z,18.33
2019-04-16T20:49:27.748Z,19.83
2019-04-16T20:52:07.745Z,17.40
2019-04-16T20:54:51.434Z,18.60
2019-04-16T20:57:32.051Z,18.50
2019-04-16T21:00:13.859Z,21.70
2019-04-16T21:02:54.183Z,22.20
2019-04-16T21:05:35.719Z,20.53
2019-04-16T21:08:17.162Z,19.73
2019-04-16T21:10:59.806Z,26.10
2019-04-16T21:13:40.813Z,18.30
2019-04-16T21:16:20.905Z,17.50
2019-04-16T21:19:01.054Z,16.53
2019-04-16T21:21:43.429Z,16.60
2019-04-16T21:24:24.477Z,18.37
2019-04-16T21:27:05.214Z,19.97
2019-04-16T21:29:46.038Z,17.07
2019-04-16T21:32:48.630Z,20.27
2019-04-16T21:35:35.073Z,19.53
2019-04-16T21:38:34.883Z,29.03
2019-04-16T21:41:15.293Z,16.67
2019-04-16T21:43:55.888Z,21.83
2019-04-16T21:46:35.930Z,19.27
2019-04-16T21:49:16.049Z,19.87
2019-04-16T21:52:15.456Z,19.33
2019-04-16T21:54:56.480Z,26.10
2019-04-16T21:57:37.075Z,18.80
2019-04-16T22:00:36.923Z,17.63
2019-04-16T22:03:20.354Z,20.63
2019-04-16T22:06:00.373Z,16.37
2019-04-16T22:08:41.418Z,20.10
2019-04-16T22:11:22.075Z,20.00
2019-04-16T22:14:02.065Z,17.73
2019-04-16T22:16:42.231Z,17.90
2019-04-16T22:19:22.257Z,12.87
2019-04-16T22:22:03.373Z,11.33
2019-04-16T22:24:44.358Z,10.20
2019-04-16T22:27:24.378Z,12.13
2019-04-16T22:30:04.342Z,10.43
2019-04-16T22:32:31.472Z,13.23
2019-04-16T22:35:11.462Z,9.93
2019-04-16T22:37:51.309Z,12.10
2019-04-16T22:40:51.566Z,11.80
2019-04-16T22:43:56.083Z,11.47
2019-04-16T22:46:39.403Z,10.33
2019-04-16T22:49:22.470Z,10.97
2019-04-16T22:52:00.994Z,9.90
2019-04-16T22:54:41.344Z,11.80
2019-04-16T22:57:21.738Z,10.50
2019-04-16T23:00:01.347Z,9.50
2019-04-16T23:02:47.819Z,9.40
2019-04-16T23:05:27.727Z,14.27
2019-04-16T23:08:11.421Z,8.30
2019-04-16T23:10:51.958Z,10.20
2019-04-16T23:13:32.632Z,12.60
2019-04-16T23:16:14.034Z,7.77
2019-04-16T23:18:53.580Z,10.63
2019-04-16T23:21:34.372Z,10.33
2019-04-16T23:24:14.045Z,9.70
2019-04-16T23:26:54.347Z,8.63
2019-04-16T23:29:34.394Z,11.10
2019-04-16T23:32:14.891Z,9.30
2019-04-16T23:34:54.718Z,11.03
2019-04-16T23:37:34.542Z,7.53
2019-04-16T23:40:02.539Z,8.73
2019-04-16T23:49:31.657Z,8.20
2019-04-16T23:52:31.941Z,8.50
2019-04-16T23:55:19.058Z,10.83
2019-04-16T23:58:09.437Z,7.43
